Time;durP1;ratioP1;P1;durP2;ratioP2;P2;SDS_P1;SDS_P2;PMS_P1;PMS_P2;Temp;Humidity;BMP_temperature;BMP_pressure;BME280_temperature;BME280_humidity;BME280_pressure;Samples;Min_cycle;Max_cycle;Signal;HPM_P1;HPM_P2
2023/05/27 06:53:48;;;;;;;6.15;2.38;;;;;;;;;;5069317;27;20440;-82
2023/05/27 06:56:13;;;;;;;6.97;2.60;;;;;;;;;;5072507;28;20484;-79
2023/05/27 06:58:39;;;;;;;16.52;2.88;;;;;;;;;;5068789;28;20021;-79
2023/05/27 07:01:04;;;;;;;8.65;2.50;;;;;;;;;;5068377;28;20025;-80
2023/05/27 07:03:29;;;;;;;8.95;2.40;;;;;;;;;;5067914;28;20013;-80
2023/05/27 07:05:55;;;;;;;8.02;2.40;;;;;;;;;;5069201;28;20092;-80
2023/05/27 07:08:20;;;;;;;13.32;2.40;;;;;;;;;;5069539;28;20091;-79
2023/05/27 07:10:45;;;;;;;9.43;2.30;;;;;;;;;;5067563;28;20380;-79
2023/05/27 07:13:13;;;;;;;11.23;2.70;;;;;;;;;;5069279;28;20466;-79
2023/05/27 07:15:39;;;;;;;7.90;2.60;;;;;;;;;;5068539;27;20608;-79
2023/05/27 07:18:04;;;;;;;14.60;2.78;;;;;;;;;;5071390;28;20029;-79
2023/05/27 07:20:29;;;;;;;8.95;2.30;;;;;;;;;;5068955;27;20033;-79
2023/05/27 07:22:55;;;;;;;11.30;2.58;;;;;;;;;;5068863;27;20037;-80
2023/05/27 07:25:20;;;;;;;9.10;2.40;;;;;;;;;;5070516;28;20111;-79
2023/05/27 07:27:45;;;;;;;13.63;2.60;;;;;;;;;;5070581;28;20293;-79
2023/05/27 07:30:11;;;;;;;8.83;2.40;;;;;;;;;;5069104;28;20024;-79
2023/05/27 07:32:36;;;;;;;11.50;2.50;;;;;;;;;;5068652;28;20276;-79
2023/05/27 07:35:01;;;;;;;10.02;2.63;;;;;;;;;;5070359;28;20036;-79
2023/05/27 07:37:28;;;;;;;14.65;2.70;;;;;;;;;;5069966;28;20021;-80
2023/05/27 07:39:53;;;;;;;8.52;2.15;;;;;;;;;;5071245;28;20035;-79
2023/05/27 07:42:18;;;;;;;5.85;2.08;;;;;;;;;;5070392;28;20107;-80
2023/05/27 07:44:43;;;;;;;10.43;2.10;;;;;;;;;;5069306;28;20418;-79
2023/05/27 07:47:09;;;;;;;12.27;2.30;;;;;;;;;;5072150;28;20036;-79
2023/05/27 07:49:34;;;;;;;12.15;2.70;;;;;;;;;;5069204;28;20326;-80
2023/05/27 07:51:59;;;;;;;9.48;2.42;;;;;;;;;;5068296;28;20059;-80
2023/05/27 07:54:26;;;;;;;7.32;2.08;;;;;;;;;;5068930;28;20077;-80
2023/05/27 07:56:52;;;;;;;10.60;2.17;;;;;;;;;;5070170;28;20020;-79
2023/05/27 07:59:17;;;;;;;7.47;2.13;;;;;;;;;;5072171;28;20055;-79
2023/05/27 08:01:42;;;;;;;10.10;2.20;;;;;;;;;;5071198;28;20017;-79
2023/05/27 08:04:07;;;;;;;9.30;2.20;;;;;;;;;;5063131;28;20033;-79
2023/05/27 08:06:32;;;;;;;12.00;2.80;;;;;;;;;;5057647;28;20262;-79
2023/05/27 08:08:58;;;;;;;9.70;2.40;;;;;;;;;;5057602;28;20033;-79
2023/05/27 08:11:23;;;;;;;9.93;2.72;;;;;;;;;;5055428;28;20257;-79
2023/05/27 08:13:48;;;;;;;9.40;2.28;;;;;;;;;;5056407;28;20547;-79
2023/05/27 08:16:13;;;;;;;10.32;2.22;;;;;;;;;;5055069;27;20025;-79
2023/05/27 08:18:39;;;;;;;7.70;2.08;;;;;;;;;;5056013;28;20479;-79
2023/05/27 08:21:04;;;;;;;7.75;2.33;;;;;;;;;;5055511;28;20024;-79
2023/05/27 08:23:30;;;;;;;11.30;2.53;;;;;;;;;;5055541;28;20093;-80
2023/05/27 08:25:55;;;;;;;8.73;2.30;;;;;;;;;;5055333;28;20056;-79
2023/05/27 08:28:20;;;;;;;6.82;2.10;;;;;;;;;;5055803;28;20029;-79
2023/05/27 08:30:46;;;;;;;11.20;2.72;;;;;;;;;;5052929;28;20038;-78
2023/05/27 08:33:11;;;;;;;10.13;2.47;;;;;;;;;;5053501;28;20396;-80
2023/05/27 08:35:40;;;;;;;6.07;2.45;;;;;;;;;;5055605;28;20032;-85
2023/05/27 08:38:06;;;;;;;9.57;2.03;;;;;;;;;;5055555;28;20108;-79
2023/05/27 08:40:31;;;;;;;11.57;2.60;;;;;;;;;;5052948;28;20064;-78
2023/05/27 08:42:56;;;;;;;6.27;2.00;;;;;;;;;;5053024;28;20021;-78
2023/05/27 08:45:22;;;;;;;9.97;2.10;;;;;;;;;;5052392;28;20261;-77
2023/05/27 08:47:48;;;;;;;8.55;2.15;;;;;;;;;;5053281;28;20257;-78
2023/05/27 08:50:14;;;;;;;8.77;2.30;;;;;;;;;;5052784;28;20395;-79
2023/05/27 08:52:49;;;;;;;9.23;2.63;;;;;;;;;;5053307;28;20020;-84
2023/05/27 08:55:17;;;;;;;7.40;2.80;;;;;;;;;;5052173;28;20033;-78
2023/05/27 08:57:49;;;;;;;10.55;2.42;;;;;;;;;;5057220;28;20036;-80
2023/05/27 09:00:14;;;;;;;3.97;1.48;;;;;;;;;;5060945;28;20025;-82
2023/05/27 09:05:55;;;;;;;12.68;2.78;;;;;;;;;;5015937;28;20057;-79
2023/05/27 09:08:20;;;;;;;8.50;2.50;;;;;;;;;;5053067;28;20063;-79
2023/05/27 09:10:46;;;;;;;9.10;2.20;;;;;;;;;;5051619;28;20025;-79
2023/05/27 09:13:13;;;;;;;8.40;2.08;;;;;;;;;;5051282;28;20024;-78
2023/05/27 09:15:44;;;;;;;12.10;2.50;;;;;;;;;;5050916;28;20040;-78
2023/05/27 09:18:10;;;;;;;11.55;2.28;;;;;;;;;;5052604;28;20518;-78
2023/05/27 09:20:41;;;;;;;8.65;2.35;;;;;;;;;;5056589;28;20029;-80
2023/05/27 09:25:41;;;;;;;5.80;1.95;;;;;;;;;;1250792;26;20053;-79
2023/05/27 09:28:08;;;;;;;12.07;2.40;;;;;;;;;;5058205;28;20083;-79
2023/05/27 09:30:33;;;;;;;6.93;1.92;;;;;;;;;;5058832;28;20031;-81
2023/05/27 09:33:43;;;;;;;12.25;2.63;;;;;;;;;;5069652;22;20503;-82
2023/05/27 10:03:27;;;;;;;10.18;2.70;;;;;;;;;;972214;26;20311;-83
2023/05/27 10:06:22;;;;;;;;;;;;;;;;;;;;;
2023/05/27 10:09:18;;;;;;;7.55;2.47;;;;;;;;;;5086303;28;20491;-84
2023/05/27 10:12:14;;;;;;;10.05;2.38;;;;;;;;;;5082639;28;20035;-81
2023/05/27 10:14:45;;;;;;;6.97;2.40;;;;;;;;;;5078200;28;20024;-81
2023/05/27 10:22:03;;;;;;;11.20;2.72;;;;;;;;;;5028756;28;20041;-81
2023/05/27 10:24:43;;;;;;;;;;;;;;;;;;;;;
2023/05/27 10:32:25;;;;;;;;;;;;;;;;;;;;;
2023/05/27 10:41:29;;;;;;;7.68;2.30;;;;;;;;;;4954125;28;20037;-79
2023/05/27 10:44:05;;;;;;;10.60;2.47;;;;;;;;;;4986245;28;20066;-77
2023/05/27 10:46:46;;;;;;;8.45;2.83;;;;;;;;;;4976676;28;20030;-77
2023/05/27 10:49:25;;;;;;;7.32;2.30;;;;;;;;;;5009235;28;20030;-77
2023/05/27 10:51:53;;;;;;;7.93;2.25;;;;;;;;;;5072743;28;20032;-80
2023/05/27 10:54:19;;;;;;;9.07;2.30;;;;;;;;;;5083523;28;20020;-82
2023/05/27 10:56:52;;;;;;;6.93;2.22;;;;;;;;;;5089983;28;20037;-81
2023/05/27 10:59:54;;;;;;;7.10;2.20;;;;;;;;;;5078960;28;20024;-87
2023/05/27 11:16:53;;;;;;;;;;;;;;;;;;;;;
2023/05/27 11:33:03;;;;;;;4.32;1.50;;;;;;;;;;3336187;26;20060;-79
2023/05/27 11:35:28;;;;;;;5.57;2.00;;;;;;;;;;5066756;28;20041;-79
2023/05/27 11:37:53;;;;;;;7.90;2.28;;;;;;;;;;5065021;28;20103;-79
2023/05/27 11:40:19;;;;;;;7.45;2.40;;;;;;;;;;5071992;28;20025;-78
2023/05/27 11:42:46;;;;;;;9.23;2.25;;;;;;;;;;5072063;28;20021;-80
2023/05/27 11:45:15;;;;;;;8.90;2.55;;;;;;;;;;5070845;28;20016;-80
2023/05/27 11:47:42;;;;;;;5.78;2.22;;;;;;;;;;5069569;28;20032;-79
2023/05/27 11:50:08;;;;;;;11.00;2.83;;;;;;;;;;5065821;28;20024;-77
2023/05/27 11:52:33;;;;;;;10.45;2.40;;;;;;;;;;5064443;28;20025;-80
2023/05/27 11:54:58;;;;;;;16.67;2.50;;;;;;;;;;5060651;28;20040;-77
2023/05/27 11:57:24;;;;;;;6.13;2.40;;;;;;;;;;5057950;28;20254;-79
2023/05/27 11:59:49;;;;;;;6.05;2.17;;;;;;;;;;5058580;28;20039;-78
2023/05/27 12:02:15;;;;;;;5.63;1.75;;;;;;;;;;5058242;28;20056;-82
2023/05/27 12:04:41;;;;;;;4.22;2.08;;;;;;;;;;5059510;28;20032;-80
2023/05/27 12:07:06;;;;;;;9.77;2.05;;;;;;;;;;5059558;28;20029;-80
2023/05/27 12:09:32;;;;;;;7.30;1.98;;;;;;;;;;5059079;28;20386;-79
2023/05/27 12:11:57;;;;;;;6.63;2.20;;;;;;;;;;5058856;28;20100;-80
2023/05/27 12:14:22;;;;;;;6.97;2.20;;;;;;;;;;5058058;28;20087;-79
2023/05/27 12:16:48;;;;;;;9.48;2.60;;;;;;;;;;5056850;28;20258;-80
2023/05/27 12:19:13;;;;;;;11.02;2.13;;;;;;;;;;5057494;28;20029;-80
2023/05/27 12:21:38;;;;;;;4.53;2.03;;;;;;;;;;5056854;28;20543;-81
2023/05/27 12:24:03;;;;;;;8.88;2.10;;;;;;;;;;5058214;28;20768;-81
2023/05/27 12:26:29;;;;;;;7.30;2.00;;;;;;;;;;5057160;28;20025;-81
2023/05/27 12:28:54;;;;;;;5.78;2.05;;;;;;;;;;5058731;28;20063;-81
2023/05/27 12:31:19;;;;;;;4.90;2.03;;;;;;;;;;5058384;28;20192;-80
2023/05/27 12:33:45;;;;;;;9.93;2.47;;;;;;;;;;5058201;28;20261;-80
2023/05/27 12:36:11;;;;;;;8.32;2.30;;;;;;;;;;5055378;28;20261;-80
2023/05/27 12:38:36;;;;;;;5.55;1.83;;;;;;;;;;5057780;28;20021;-81
2023/05/27 12:41:02;;;;;;;8.88;2.22;;;;;;;;;;5056156;28;20110;-81
2023/05/27 12:43:27;;;;;;;6.13;2.30;;;;;;;;;;5055891;28;20396;-79
2023/05/27 12:45:52;;;;;;;5.72;1.95;;;;;;;;;;5057145;28;20033;-78
2023/05/27 12:48:18;;;;;;;6.63;2.10;;;;;;;;;;5057466;28;20403;-78
2023/05/27 12:50:43;;;;;;;6.03;2.10;;;;;;;;;;5056121;28;20024;-78
2023/05/27 12:53:10;;;;;;;5.38;2.20;;;;;;;;;;5057864;28;20017;-79
2023/05/27 12:55:36;;;;;;;5.30;1.95;;;;;;;;;;5056659;28;20027;-78
2023/05/27 12:58:01;;;;;;;6.43;2.35;;;;;;;;;;5055489;28;20033;-78
2023/05/27 13:00:27;;;;;;;5.18;2.05;;;;;;;;;;5057501;28;20031;-77
2023/05/27 13:02:52;;;;;;;10.70;2.50;;;;;;;;;;5054897;28;20076;-77
2023/05/27 13:05:18;;;;;;;7.97;2.72;;;;;;;;;;5055995;28;20543;-78
2023/05/27 13:08:13;;;;;;;4.57;2.85;;;;;;;;;;5054825;28;20032;-76
2023/05/27 13:10:38;;;;;;;7.63;2.65;;;;;;;;;;5043254;28;20381;-78
2023/05/27 13:13:04;;;;;;;5.40;2.10;;;;;;;;;;5056001;28;20021;-77
2023/05/27 13:15:29;;;;;;;6.78;2.20;;;;;;;;;;5054920;28;20029;-77
2023/05/27 13:17:55;;;;;;;5.93;2.65;;;;;;;;;;5038443;28;20107;-80
2023/05/27 13:20:23;;;;;;;5.75;1.85;;;;;;;;;;5056210;28;20067;-79
2023/05/27 13:22:48;;;;;;;9.65;2.30;;;;;;;;;;5055731;28;20547;-79
2023/05/27 13:25:14;;;;;;;8.15;2.10;;;;;;;;;;5056140;28;20071;-79
2023/05/27 13:27:46;;;;;;;6.90;2.30;;;;;;;;;;5055128;28;20031;-78
2023/05/27 13:30:13;;;;;;;6.20;2.45;;;;;;;;;;5056035;28;20024;-78
2023/05/27 13:32:39;;;;;;;8.50;3.20;;;;;;;;;;5055959;28;20418;-78
2023/05/27 13:35:05;;;;;;;15.40;4.18;;;;;;;;;;5054357;28;20122;-78
2023/05/27 13:37:30;;;;;;;8.48;2.42;;;;;;;;;;5055658;28;20067;-78
2023/05/27 13:39:57;;;;;;;16.70;4.57;;;;;;;;;;5054761;28;20021;-77
2023/05/27 13:42:22;;;;;;;7.13;2.50;;;;;;;;;;5054087;28;20093;-77
2023/05/27 13:44:47;;;;;;;8.73;2.20;;;;;;;;;;5053965;28;20108;-76
2023/05/27 13:47:12;;;;;;;6.70;2.33;;;;;;;;;;5054901;28;20052;-79
2023/05/27 13:49:38;;;;;;;9.93;3.67;;;;;;;;;;5055639;28;20283;-79
2023/05/27 13:52:03;;;;;;;8.57;2.53;;;;;;;;;;5055429;28;20242;-78
2023/05/27 13:54:28;;;;;;;6.32;2.33;;;;;;;;;;5053864;28;20301;-79
2023/05/27 13:56:54;;;;;;;8.20;2.60;;;;;;;;;;5054686;28;20028;-77
2023/05/27 13:59:20;;;;;;;12.05;4.28;;;;;;;;;;5055488;28;20311;-77
2023/05/27 14:01:45;;;;;;;5.88;2.00;;;;;;;;;;5054478;28;20025;-77
2023/05/27 14:04:10;;;;;;;5.13;2.30;;;;;;;;;;5054824;28;20025;-79
2023/05/27 14:06:36;;;;;;;11.88;2.75;;;;;;;;;;5053964;28;20315;-79
2023/05/27 14:09:01;;;;;;;7.75;2.55;;;;;;;;;;5055485;28;20028;-78
2023/05/27 14:11:27;;;;;;;8.98;2.25;;;;;;;;;;5055302;28;20396;-79
2023/05/27 14:13:54;;;;;;;7.13;2.70;;;;;;;;;;5053953;28;20028;-79
2023/05/27 14:16:21;;;;;;;7.40;2.50;;;;;;;;;;5054883;28;20047;-79
2023/05/27 14:18:46;;;;;;;3.33;1.92;;;;;;;;;;5055341;28;20480;-78
2023/05/27 14:21:11;;;;;;;6.00;2.13;;;;;;;;;;5054948;28;20029;-79
2023/05/27 14:23:36;;;;;;;5.03;2.10;;;;;;;;;;5054116;28;20118;-78
2023/05/27 14:26:02;;;;;;;7.07;2.47;;;;;;;;;;5055040;28;20257;-78
2023/05/27 14:28:27;;;;;;;4.70;2.00;;;;;;;;;;5054730;28;20023;-79
2023/05/27 14:30:52;;;;;;;6.57;2.27;;;;;;;;;;5054710;28;20032;-79
2023/05/27 14:33:18;;;;;;;7.30;2.38;;;;;;;;;;5054844;28;20265;-79
2023/05/27 14:35:44;;;;;;;11.52;2.47;;;;;;;;;;5054746;28;20047;-79
2023/05/27 14:38:10;;;;;;;5.78;2.15;;;;;;;;;;5055159;28;20069;-79
2023/05/27 14:40:36;;;;;;;5.25;2.47;;;;;;;;;;5054674;28;20479;-79
2023/05/27 14:43:01;;;;;;;5.40;2.08;;;;;;;;;;5054492;28;20029;-79
2023/05/27 14:45:26;;;;;;;5.18;2.25;;;;;;;;;;5054928;28;20016;-80
2023/05/27 14:47:53;;;;;;;5.97;2.17;;;;;;;;;;5053435;28;20035;-79
2023/05/27 14:50:21;;;;;;;5.25;2.08;;;;;;;;;;5052495;28;20270;-78
2023/05/27 14:52:46;;;;;;;3.40;2.03;;;;;;;;;;5052903;28;20021;-78
2023/05/27 14:55:11;;;;;;;6.23;2.30;;;;;;;;;;5053978;28;20120;-79
2023/05/27 14:57:37;;;;;;;7.30;2.13;;;;;;;;;;5054160;28;20281;-79
2023/05/27 15:00:06;;;;;;;10.00;2.40;;;;;;;;;;5054481;28;20112;-79
2023/05/27 15:02:31;;;;;;;5.53;2.40;;;;;;;;;;5033085;28;20098;-79
2023/05/27 15:04:57;;;;;;;6.75;2.13;;;;;;;;;;5053663;28;20464;-79
2023/05/27 15:07:22;;;;;;;4.07;2.30;;;;;;;;;;5054573;28;20040;-80
2023/05/27 15:09:48;;;;;;;6.65;2.13;;;;;;;;;;5053636;28;20070;-79
2023/05/27 15:12:13;;;;;;;5.70;2.45;;;;;;;;;;5052444;28;20029;-79
2023/05/27 15:14:38;;;;;;;4.10;1.92;;;;;;;;;;5054015;28;20021;-80
2023/05/27 15:17:04;;;;;;;4.15;2.20;;;;;;;;;;5056337;28;20419;-79
2023/05/27 15:19:29;;;;;;;5.88;2.03;;;;;;;;;;5057790;28;20021;-80
2023/05/27 15:21:55;;;;;;;4.32;2.30;;;;;;;;;;5056837;28;20021;-78
2023/05/27 15:24:20;;;;;;;6.32;2.25;;;;;;;;;;5058242;28;20404;-77
2023/05/27 15:26:45;;;;;;;9.67;2.63;;;;;;;;;;5058244;28;20104;-79
2023/05/27 15:29:11;;;;;;;5.35;2.28;;;;;;;;;;5057283;28;20296;-78
2023/05/27 15:31:36;;;;;;;6.93;2.30;;;;;;;;;;5057592;28;20473;-80
2023/05/27 15:34:02;;;;;;;7.22;2.55;;;;;;;;;;5057215;28;20245;-77
2023/05/27 15:36:27;;;;;;;6.60;2.03;;;;;;;;;;5056454;28;20025;-77
2023/05/27 15:38:52;;;;;;;6.07;2.60;;;;;;;;;;5057050;28;20480;-78
2023/05/27 15:41:18;;;;;;;6.10;2.50;;;;;;;;;;5056301;28;20071;-77
2023/05/27 15:43:43;;;;;;;7.87;2.67;;;;;;;;;;5055752;28;20273;-79
2023/05/27 15:46:08;;;;;;;4.83;2.40;;;;;;;;;;5057921;28;20337;-78
2023/05/27 15:48:33;;;;;;;6.37;2.30;;;;;;;;;;5057597;28;20266;-78
2023/05/27 15:50:58;;;;;;;6.13;2.65;;;;;;;;;;5057572;28;20272;-78
2023/05/27 15:53:24;;;;;;;3.70;2.27;;;;;;;;;;5057353;28;20047;-80
2023/05/27 15:55:49;;;;;;;5.37;2.53;;;;;;;;;;5057393;28;20250;-78
2023/05/27 15:58:14;;;;;;;8.10;2.58;;;;;;;;;;5057625;28;20265;-78
2023/05/27 16:00:40;;;;;;;5.85;2.00;;;;;;;;;;5057862;28;20061;-78
2023/05/27 16:03:05;;;;;;;5.75;2.72;;;;;;;;;;5057151;28;20427;-77
2023/05/27 16:05:30;;;;;;;8.20;2.30;;;;;;;;;;5058483;28;20037;-77
2023/05/27 16:07:55;;;;;;;5.67;2.50;;;;;;;;;;5057269;28;20396;-77
2023/05/27 16:10:20;;;;;;;4.30;2.30;;;;;;;;;;5057375;28;20269;-77
2023/05/27 16:12:46;;;;;;;5.85;2.60;;;;;;;;;;5057307;28;20254;-78
2023/05/27 16:15:12;;;;;;;7.88;2.90;;;;;;;;;;5058291;28;20491;-78
2023/05/27 16:17:37;;;;;;;7.60;3.33;;;;;;;;;;5058491;28;20078;-78
2023/05/27 16:20:03;;;;;;;9.27;4.00;;;;;;;;;;5058112;28;20024;-77
2023/05/27 16:22:28;;;;;;;4.38;2.08;;;;;;;;;;5057560;28;20273;-77
2023/05/27 16:24:53;;;;;;;7.13;1.97;;;;;;;;;;5059065;28;20056;-77
2023/05/27 16:27:18;;;;;;;4.73;2.23;;;;;;;;;;5059213;28;20269;-76
2023/05/27 16:29:44;;;;;;;2.58;1.92;;;;;;;;;;5059681;28;20273;-79
2023/05/27 16:32:09;;;;;;;4.60;2.20;;;;;;;;;;5056681;28;20035;-79
2023/05/27 16:34:35;;;;;;;6.63;2.70;;;;;;;;;;5059160;28;20025;-77
2023/05/27 16:37:00;;;;;;;5.90;2.50;;;;;;;;;;5057536;28;20154;-77
2023/05/27 16:39:26;;;;;;;6.90;2.60;;;;;;;;;;5054179;28;20021;-79
2023/05/27 16:41:52;;;;;;;8.18;2.65;;;;;;;;;;5056432;28;20341;-81
2023/05/27 16:44:17;;;;;;;11.00;4.28;;;;;;;;;;5055714;28;20047;-77
2023/05/27 16:46:43;;;;;;;8.00;2.47;;;;;;;;;;5056384;28;20468;-77
2023/05/27 16:49:08;;;;;;;5.90;2.63;;;;;;;;;;5057008;28;20361;-76
2023/05/27 16:51:33;;;;;;;7.18;2.70;;;;;;;;;;5056997;28;20028;-76
2023/05/27 16:53:59;;;;;;;7.30;4.35;;;;;;;;;;5058117;28;20028;-78
2023/05/27 16:56:24;;;;;;;10.30;3.45;;;;;;;;;;5056238;28;20053;-78
2023/05/27 16:58:54;;;;;;;7.55;2.75;;;;;;;;;;5060542;28;20060;-79
2023/05/27 17:01:20;;;;;;;6.70;2.75;;;;;;;;;;5059165;28;20044;-81
2023/05/27 17:03:45;;;;;;;6.13;2.72;;;;;;;;;;5058761;28;20040;-80
2023/05/27 17:06:10;;;;;;;6.30;2.47;;;;;;;;;;5058092;28;20622;-79
2023/05/27 17:08:35;;;;;;;10.20;2.92;;;;;;;;;;5057424;28;20262;-80
2023/05/27 17:11:01;;;;;;;6.37;2.97;;;;;;;;;;5057742;28;20024;-83
2023/05/27 17:13:27;;;;;;;7.07;3.03;;;;;;;;;;5056528;28;20242;-80
2023/05/27 17:15:53;;;;;;;5.68;2.60;;;;;;;;;;5055978;28;20487;-79
2023/05/27 17:18:19;;;;;;;6.93;2.78;;;;;;;;;;5056737;28;20070;-79
2023/05/27 17:20:45;;;;;;;6.53;3.17;;;;;;;;;;5055786;28;20017;-78
2023/05/27 17:23:10;;;;;;;10.75;2.70;;;;;;;;;;5055559;28;20032;-79
2023/05/27 17:25:35;;;;;;;6.63;2.80;;;;;;;;;;5052691;28;20060;-80
2023/05/27 17:28:00;;;;;;;7.50;2.90;;;;;;;;;;5056134;28;20029;-78
2023/05/27 17:30:25;;;;;;;6.95;2.50;;;;;;;;;;5053672;28;20060;-79
2023/05/27 17:32:51;;;;;;;11.50;2.90;;;;;;;;;;5056176;28;20032;-79
2023/05/27 17:35:16;;;;;;;7.63;2.40;;;;;;;;;;5056695;28;20261;-79
2023/05/27 17:37:41;;;;;;;6.27;2.80;;;;;;;;;;5055251;28;20326;-79
2023/05/27 17:40:08;;;;;;;7.68;3.15;;;;;;;;;;5055997;28;20266;-79
2023/05/27 17:42:34;;;;;;;7.65;3.20;;;;;;;;;;5055666;28;20033;-79
2023/05/27 17:44:59;;;;;;;10.82;3.67;;;;;;;;;;5055647;28;20527;-79
2023/05/27 17:47:24;;;;;;;6.33;3.30;;;;;;;;;;5055709;28;20547;-80
2023/05/27 17:49:50;;;;;;;9.33;3.40;;;;;;;;;;5055731;28;20745;-80
2023/05/27 17:52:15;;;;;;;7.73;3.00;;;;;;;;;;5055469;28;20760;-79
2023/05/27 17:54:41;;;;;;;6.20;2.80;;;;;;;;;;5054229;28;20278;-81
2023/05/27 17:57:06;;;;;;;7.32;3.05;;;;;;;;;;5053873;28;20028;-81
2023/05/27 17:59:32;;;;;;;45.45;25.08;;;;;;;;;;5055482;28;20543;-80
2023/05/27 18:01:57;;;;;;;22.00;10.82;;;;;;;;;;5053829;28;20029;-79
2023/05/27 18:04:22;;;;;;;6.33;3.67;;;;;;;;;;5054317;28;20107;-78
2023/05/27 18:06:47;;;;;;;10.53;3.93;;;;;;;;;;5052308;28;20289;-77
2023/05/27 18:09:13;;;;;;;10.03;6.17;;;;;;;;;;5052676;28;20254;-78
2023/05/27 18:11:38;;;;;;;12.65;5.63;;;;;;;;;;5054747;28;20269;-78
2023/05/27 18:14:05;;;;;;;7.28;3.83;;;;;;;;;;5053883;28;20063;-77
2023/05/27 18:16:31;;;;;;;11.80;3.83;;;;;;;;;;5054296;28;20032;-78
2023/05/27 18:18:56;;;;;;;11.15;3.80;;;;;;;;;;5053699;28;20108;-78
2023/05/27 18:21:21;;;;;;;9.17;4.20;;;;;;;;;;5053394;28;20021;-79
2023/05/27 18:23:47;;;;;;;13.35;4.60;;;;;;;;;;5054662;28;20277;-78
2023/05/27 18:26:12;;;;;;;10.32;4.30;;;;;;;;;;5054661;28;20452;-77
2023/05/27 18:28:37;;;;;;;11.00;4.70;;;;;;;;;;5053287;28;20017;-78
2023/05/27 18:31:02;;;;;;;11.70;5.13;;;;;;;;;;5054539;28;20056;-78
2023/05/27 18:33:27;;;;;;;12.73;6.00;;;;;;;;;;5054324;28;20325;-79
2023/05/27 18:35:53;;;;;;;9.60;4.87;;;;;;;;;;5053490;28;20784;-79
2023/05/27 18:38:18;;;;;;;11.60;4.93;;;;;;;;;;5053942;28;20262;-78
2023/05/27 18:40:46;;;;;;;10.23;4.07;;;;;;;;;;5053352;28;20029;-78
2023/05/27 18:43:12;;;;;;;11.85;4.68;;;;;;;;;;5054066;28;20392;-79
2023/05/27 18:45:51;;;;;;;11.60;4.18;;;;;;;;;;5054240;28;20396;-78
2023/05/27 18:48:24;;;;;;;9.38;3.97;;;;;;;;;;5054963;28;20021;-85
2023/05/27 18:50:49;;;;;;;8.63;4.28;;;;;;;;;;5052799;28;20025;-79
2023/05/27 18:53:15;;;;;;;10.32;5.18;;;;;;;;;;5051205;28;20063;-79
2023/05/27 18:55:40;;;;;;;8.98;4.43;;;;;;;;;;5052034;28;20041;-79
2023/05/27 18:58:06;;;;;;;10.65;5.22;;;;;;;;;;5050968;28;20031;-77
2023/05/27 19:00:31;;;;;;;13.57;6.03;;;;;;;;;;5052512;28;20035;-79
2023/05/27 19:03:01;;;;;;;15.30;7.10;;;;;;;;;;5054056;28;20029;-78
2023/05/27 19:05:26;;;;;;;12.95;6.40;;;;;;;;;;5053707;28;20021;-84
2023/05/27 19:07:51;;;;;;;12.40;6.35;;;;;;;;;;5052388;28;20028;-78
2023/05/27 19:10:16;;;;;;;12.48;6.25;;;;;;;;;;5053124;28;20029;-78
2023/05/27 19:12:42;;;;;;;11.32;5.30;;;;;;;;;;5053083;28;20024;-77
2023/05/27 19:15:07;;;;;;;12.98;4.82;;;;;;;;;;5053930;28;20508;-78
2023/05/27 19:17:32;;;;;;;11.43;4.68;;;;;;;;;;5052953;28;20108;-78
2023/05/27 19:19:58;;;;;;;11.70;5.00;;;;;;;;;;5053578;28;20485;-78
2023/05/27 19:46:37;;;;;;;10.68;5.10;;;;;;;;;;5252861;22;20055;-78
2023/05/27 19:50:00;;;;;;;;;;;;;;;;;;;;;
2023/05/27 19:52:28;;;;;;;12.82;6.47;;;;;;;;;;4992322;28;20030;-78
2023/05/27 19:54:53;;;;;;;14.23;5.72;;;;;;;;;;4993115;28;20211;-79
2023/05/27 19:57:19;;;;;;;14.95;6.10;;;;;;;;;;4998539;28;20088;-78
2023/05/27 19:59:48;;;;;;;11.77;5.55;;;;;;;;;;5034012;28;20022;-78
2023/05/27 20:02:13;;;;;;;13.60;5.93;;;;;;;;;;5038545;28;20075;-78
2023/05/27 20:04:38;;;;;;;11.82;5.70;;;;;;;;;;5038739;28;20029;-78
2023/05/27 20:07:04;;;;;;;12.13;5.80;;;;;;;;;;5037616;28;20488;-78
2023/05/27 20:09:29;;;;;;;12.35;5.75;;;;;;;;;;5019282;28;20765;-78
2023/05/27 20:11:55;;;;;;;12.13;6.05;;;;;;;;;;5036766;28;20017;-78
2023/05/27 20:14:20;;;;;;;14.35;6.35;;;;;;;;;;5019200;28;20384;-79
2023/05/27 20:16:46;;;;;;;15.52;6.90;;;;;;;;;;5037014;28;20036;-79
2023/05/27 20:19:11;;;;;;;12.73;5.07;;;;;;;;;;5037508;28;20393;-79
2023/05/27 20:21:36;;;;;;;15.40;6.27;;;;;;;;;;5037215;28;20262;-79
2023/05/27 20:24:02;;;;;;;12.90;5.75;;;;;;;;;;5019733;28;20353;-79
2023/05/27 20:26:28;;;;;;;12.82;5.47;;;;;;;;;;5038027;28;20021;-79
2023/05/27 20:28:53;;;;;;;13.48;7.13;;;;;;;;;;5037492;28;20404;-81
2023/05/27 20:31:24;;;;;;;16.20;8.07;;;;;;;;;;5019415;28;20026;-79
2023/05/27 20:33:55;;;;;;;15.85;8.02;;;;;;;;;;5037190;28;20048;-80
2023/05/27 20:37:24;;;;;;;;;;;;;;;;;;;;;
2023/05/27 20:55:26;;;;;;;11.45;5.22;;;;;;;;;;3342815;22;20531;-80
2023/05/27 21:10:56;;;;;;;;;;;;;;;;;;;;;
2023/05/27 21:33:48;;;;;;;18.42;8.38;;;;;;;;;;4639418;22;20045;-79
2023/05/27 21:36:13;;;;;;;17.65;8.48;;;;;;;;;;5058026;28;20029;-80
2023/05/27 21:38:45;;;;;;;19.15;9.48;;;;;;;;;;5056923;28;20479;-78
2023/05/27 21:41:34;;;;;;;24.15;12.27;;;;;;;;;;5056705;28;20500;-79
2023/05/27 21:44:28;;;;;;;21.52;13.02;;;;;;;;;;5057129;28;20029;-78
2023/05/27 21:47:21;;;;;;;16.48;8.63;;;;;;;;;;5015874;28;20041;-78
2023/05/27 21:50:44;;;;;;;14.10;6.70;;;;;;;;;;5057110;28;20029;-77
2023/05/27 21:57:20;;;;;;;13.40;7.13;;;;;;;;;;5034471;28;20040;-79
2023/05/27 21:59:55;;;;;;;24.30;12.68;;;;;;;;;;5054882;28;20099;-77
2023/05/27 22:02:28;;;;;;;18.75;10.00;;;;;;;;;;5037279;28;20079;-77
2023/05/27 22:05:05;;;;;;;13.90;6.93;;;;;;;;;;5055635;28;20048;-78
2023/05/27 22:07:30;;;;;;;11.18;6.47;;;;;;;;;;5054923;28;20476;-78
2023/05/27 22:10:13;;;;;;;14.95;6.65;;;;;;;;;;5055312;28;20039;-78
2023/05/27 22:12:47;;;;;;;12.95;6.82;;;;;;;;;;5001740;28;20030;-79
2023/05/27 22:15:15;;;;;;;15.35;7.32;;;;;;;;;;5056241;28;20538;-79
2023/05/27 22:17:45;;;;;;;15.20;7.65;;;;;;;;;;5057061;28;20029;-79
2023/05/27 22:20:18;;;;;;;16.13;8.02;;;;;;;;;;5056247;28;20447;-80
2023/05/27 22:22:49;;;;;;;15.43;8.00;;;;;;;;;;5055340;28;20025;-78
2023/05/27 22:25:45;;;;;;;18.15;7.40;;;;;;;;;;5055263;28;20031;-78
2023/05/27 22:28:53;;;;;;;17.92;7.60;;;;;;;;;;5055552;28;20021;-77
2023/05/27 22:31:28;;;;;;;14.50;7.85;;;;;;;;;;5055841;28;20495;-78
2023/05/27 22:34:19;;;;;;;15.90;8.20;;;;;;;;;;5055897;28;20067;-79
2023/05/27 22:37:04;;;;;;;15.68;8.00;;;;;;;;;;5055506;28;20023;-78
2023/05/27 22:39:32;;;;;;;14.77;7.82;;;;;;;;;;5055961;28;20396;-78
2023/05/27 22:42:10;;;;;;;;;;;;;;;;;;;;;
2023/05/27 22:44:52;;;;;;;13.43;7.53;;;;;;;;;;5055447;28;20021;-78
2023/05/27 22:47:18;;;;;;;18.73;7.13;;;;;;;;;;5056506;28;20023;-78
2023/05/27 22:49:45;;;;;;;11.65;6.80;;;;;;;;;;5055879;28;20033;-80
2023/05/27 22:52:11;;;;;;;12.95;6.35;;;;;;;;;;5055130;28;20036;-78
2023/05/27 22:54:58;;;;;;;12.88;6.22;;;;;;;;;;5036386;28;20029;-80
2023/05/27 22:57:29;;;;;;;11.55;6.35;;;;;;;;;;5038398;28;20096;-78
2023/05/27 23:00:12;;;;;;;;;;;;;;;;;;;;;
2023/05/27 23:02:45;;;;;;;15.52;6.60;;;;;;;;;;5055387;28;20037;-80
2023/05/27 23:05:21;;;;;;;16.00;6.32;;;;;;;;;;5055032;28;20025;-76
2023/05/27 23:07:49;;;;;;;14.27;6.78;;;;;;;;;;5037363;28;20025;-79
2023/05/27 23:10:17;;;;;;;13.50;6.65;;;;;;;;;;5037823;28;20049;-78
2023/05/27 23:12:45;;;;;;;15.60;6.95;;;;;;;;;;5036490;28;20051;-79
2023/05/27 23:15:13;;;;;;;13.00;6.20;;;;;;;;;;5055599;28;20024;-77
2023/05/27 23:17:44;;;;;;;13.13;6.18;;;;;;;;;;5055129;28;20021;-79
2023/05/27 23:20:21;;;;;;;14.23;6.63;;;;;;;;;;5036850;28;20055;-77
2023/05/27 23:22:56;;;;;;;13.68;6.53;;;;;;;;;;5036461;28;20481;-79
2023/05/27 23:25:50;;;;;;;12.98;6.30;;;;;;;;;;5037240;28;20044;-78
2023/05/27 23:31:42;;;;;;;13.38;6.32;;;;;;;;;;5023169;28;20028;-79
2023/05/27 23:34:49;;;;;;;12.27;6.40;;;;;;;;;;5054671;28;20025;-78
2023/05/27 23:37:59;;;;;;;12.85;6.68;;;;;;;;;;5058479;28;20021;-79
2023/05/27 23:40:55;;;;;;;18.02;7.22;;;;;;;;;;5021539;28;20047;-78
2023/05/27 23:43:25;;;;;;;15.00;6.95;;;;;;;;;;5058175;28;20042;-79
2023/05/27 23:46:16;;;;;;;15.38;7.15;;;;;;;;;;5058875;28;20017;-78
2023/05/27 23:48:45;;;;;;;18.80;7.60;;;;;;;;;;5040119;28;20028;-77
